Time;durP1;ratioP1;P1;durP2;ratioP2;P2;SDS_P1;SDS_P2;PMS_P1;PMS_P2;Temp;Humidity;BMP_temperature;BMP_pressure;BME280_temperature;BME280_humidity;BME280_pressure;Samples;Min_cycle;Max_cycle;Signal;HPM_P1;HPM_P2
2022/08/04 00:01:02;;;;;;;11.73;3.22;;;20.40;99.90;;;;;;5016461;28;20050;-70
2022/08/04 00:03:37;;;;;;;13.88;3.78;;;20.40;99.90;;;;;;5016593;28;20050;-69
2022/08/04 00:06:10;;;;;;;13.18;3.47;;;20.40;99.90;;;;;;5017042;28;20050;-69
2022/08/04 00:08:36;;;;;;;;;;;20.40;99.90;;;;;;5017143;28;20089;-71
2022/08/04 00:11:02;;;;;;;11.95;3.28;;;20.40;99.90;;;;;;5016186;28;19987;-69
2022/08/04 00:13:31;;;;;;;8.90;3.25;;;20.40;99.90;;;;;;5016524;28;20077;-70
2022/08/04 00:15:58;;;;;;;7.07;3.17;;;20.40;99.90;;;;;;5016293;28;20133;-70
2022/08/04 00:18:43;;;;;;;7.93;3.30;;;20.30;99.90;;;;;;5016731;28;20164;-69
2022/08/04 00:21:11;;;;;;;13.27;4.10;;;20.30;99.90;;;;;;4996997;28;20056;-70
2022/08/04 00:23:38;;;;;;;9.68;3.05;;;20.30;99.90;;;;;;4996976;28;20046;-70
2022/08/04 00:26:04;;;;;;;11.23;3.78;;;20.30;99.90;;;;;;4996863;28;20370;-70
2022/08/04 00:28:30;;;;;;;5.65;3.30;;;20.30;99.90;;;;;;4996514;28;20129;-70
2022/08/04 00:30:56;;;;;;;16.27;3.40;;;20.20;99.90;;;;;;5015099;28;20413;-70
2022/08/04 00:33:22;;;;;;;8.73;3.03;;;20.30;99.90;;;;;;5016434;28;20045;-70
2022/08/04 00:35:48;;;;;;;11.75;3.35;;;20.20;99.90;;;;;;5015905;28;20045;-70
2022/08/04 00:38:16;;;;;;;10.10;3.00;;;20.20;99.90;;;;;;5015938;28;20042;-69
2022/08/04 00:40:55;;;;;;;6.93;3.13;;;20.10;99.90;;;;;;5015974;28;20319;-69
2022/08/04 00:43:27;;;;;;;5.15;2.83;;;20.10;99.90;;;;;;5015578;28;20458;-70
2022/08/04 00:46:07;;;;;;;9.00;3.08;;;20.10;99.90;;;;;;5016363;28;20049;-69
2022/08/04 00:49:09;;;;;;;8.88;3.85;;;20.10;99.90;;;;;;5016118;28;20080;-70
2022/08/04 00:51:41;;;;;;;6.95;2.75;;;20.00;99.90;;;;;;4996142;28;20042;-70
2022/08/04 00:54:21;;;;;;;8.15;2.80;;;20.00;99.90;;;;;;4996254;28;20133;-70
2022/08/04 00:57:09;;;;;;;6.78;3.03;;;20.00;99.90;;;;;;4996097;28;20042;-70
2022/08/04 00:59:49;;;;;;;7.55;3.05;;;19.90;99.90;;;;;;5002879;28;20324;-70
2022/08/04 01:02:30;;;;;;;8.95;3.35;;;19.90;99.90;;;;;;5015241;28;20482;-70
2022/08/04 01:05:02;;;;;;;8.32;3.00;;;19.80;99.90;;;;;;5015802;28;20111;-70
2022/08/04 01:07:48;;;;;;;8.43;3.33;;;19.80;99.90;;;;;;5015527;28;20080;-70
2022/08/04 01:10:31;;;;;;;8.73;3.00;;;19.80;99.90;;;;;;5015224;28;20399;-70
2022/08/04 01:13:12;;;;;;;9.43;3.20;;;19.60;99.90;;;;;;5015807;28;20054;-70
2022/08/04 01:15:47;;;;;;;9.88;2.80;;;19.70;99.90;;;;;;5015394;28;20050;-70
2022/08/04 01:18:23;;;;;;;12.68;3.00;;;19.70;99.90;;;;;;5015719;28;20370;-70
2022/08/04 01:20:51;;;;;;;8.93;3.13;;;19.60;99.90;;;;;;5015205;28;20042;-70
2022/08/04 01:23:33;;;;;;;4.97;2.83;;;19.60;99.90;;;;;;5015553;28;20052;-70
2022/08/04 01:26:23;;;;;;;8.57;3.25;;;19.70;99.90;;;;;;5015640;28;20042;-70
2022/08/04 01:29:11;;;;;;;7.07;2.85;;;19.60;99.90;;;;;;5014814;28;20061;-70
2022/08/04 01:32:01;;;;;;;8.52;3.17;;;19.50;99.90;;;;;;5015345;28;20053;-70
2022/08/04 01:34:35;;;;;;;8.13;3.10;;;19.50;99.90;;;;;;5015176;28;20471;-70
2022/08/04 01:37:13;;;;;;;15.05;3.20;;;19.50;99.90;;;;;;5014296;28;20046;-70
2022/08/04 01:39:48;;;;;;;7.68;2.72;;;19.50;99.90;;;;;;4995281;28;20077;-70
2022/08/04 01:42:18;;;;;;;9.50;3.55;;;19.40;99.90;;;;;;4995554;28;20046;-69
2022/08/04 01:44:47;;;;;;;13.55;2.97;;;19.40;99.90;;;;;;4995099;28;20049;-70
2022/08/04 01:47:16;;;;;;;8.70;3.65;;;19.40;99.90;;;;;;4996698;28;20069;-70
2022/08/04 01:49:47;;;;;;;5.85;2.72;;;19.40;99.90;;;;;;5018653;28;20127;-70
2022/08/04 01:52:16;;;;;;;7.30;2.72;;;19.40;99.90;;;;;;5018366;28;20064;-70
2022/08/04 01:54:42;;;;;;;9.18;3.20;;;19.30;99.90;;;;;;5019352;28;20050;-70
2022/08/04 01:57:10;;;;;;;6.65;2.88;;;19.40;99.90;;;;;;5017752;28;20045;-70
2022/08/04 01:59:38;;;;;;;10.85;3.30;;;19.30;99.90;;;;;;5018989;28;20115;-70
2022/08/04 02:02:06;;;;;;;7.15;2.97;;;19.30;99.90;;;;;;5018920;28;20058;-70
2022/08/04 02:04:34;;;;;;;10.15;3.03;;;19.30;99.90;;;;;;5018934;28;20081;-70
2022/08/04 02:06:59;;;;;;;5.40;2.55;;;19.20;99.90;;;;;;5019177;28;20058;-69
2022/08/04 02:09:40;;;;;;;9.18;2.90;;;19.30;99.90;;;;;;5018596;28;20073;-70
2022/08/04 02:12:30;;;;;;;14.05;3.53;;;19.20;99.90;;;;;;5018778;28;20069;-70
2022/08/04 02:15:22;;;;;;;9.60;3.08;;;19.20;99.90;;;;;;5018651;28;20093;-70
2022/08/04 02:18:18;;;;;;;13.43;3.28;;;19.20;99.90;;;;;;5018229;28;20041;-70
2022/08/04 02:20:47;;;;;;;10.20;3.78;;;19.20;99.90;;;;;;5015027;28;20081;-70
2022/08/04 02:23:28;;;;;;;12.38;3.35;;;19.10;99.90;;;;;;5018739;28;20446;-69
2022/08/04 02:26:00;;;;;;;7.25;3.10;;;19.20;99.90;;;;;;5018781;28;20092;-70
2022/08/04 02:28:47;;;;;;;7.65;3.15;;;19.10;99.90;;;;;;5018424;28;20038;-70
2022/08/04 02:31:29;;;;;;;7.95;3.42;;;19.10;99.90;;;;;;5018364;28;20176;-70
2022/08/04 02:34:05;;;;;;;11.18;3.40;;;19.00;99.90;;;;;;5018348;28;20060;-70
2022/08/04 02:36:39;;;;;;;6.05;2.75;;;19.10;99.90;;;;;;5017530;28;20056;-70
2022/08/04 02:39:06;;;;;;;7.72;3.00;;;19.10;99.90;;;;;;5017843;28;20462;-70
2022/08/04 02:41:33;;;;;;;12.57;3.53;;;19.00;99.90;;;;;;5018652;28;20105;-70
2022/08/04 02:44:00;;;;;;;7.78;3.17;;;19.00;99.90;;;;;;5018222;28;20056;-70
2022/08/04 02:46:27;;;;;;;11.50;3.95;;;19.00;99.90;;;;;;5018566;28;20452;-70
2022/08/04 02:48:53;;;;;;;7.13;2.97;;;19.00;99.90;;;;;;5018411;28;20052;-70
2022/08/04 02:51:26;;;;;;;6.00;3.20;;;19.00;99.90;;;;;;5018237;28;20046;-70
2022/08/04 02:53:55;;;;;;;11.02;4.05;;;19.00;99.90;;;;;;5018268;28;20046;-70
2022/08/04 02:56:21;;;;;;;12.30;3.08;;;19.00;99.90;;;;;;5017928;28;20121;-70
2022/08/04 02:58:52;;;;;;;11.80;3.40;;;19.00;99.90;;;;;;5017393;28;20054;-70
2022/08/04 03:01:20;;;;;;;11.00;3.38;;;19.00;99.90;;;;;;5017994;28;20056;-70
2022/08/04 03:04:03;;;;;;;9.48;3.53;;;19.00;99.90;;;;;;5017834;28;20168;-70
2022/08/04 03:06:47;;;;;;;9.90;3.30;;;19.00;99.90;;;;;;5018095;28;20193;-70
2022/08/04 03:09:22;;;;;;;8.00;3.17;;;18.90;99.90;;;;;;5017494;28;20042;-70
2022/08/04 03:11:54;;;;;;;8.07;2.78;;;18.90;99.90;;;;;;5017902;28;20121;-70
2022/08/04 03:14:30;;;;;;;10.55;3.10;;;18.80;99.90;;;;;;5017874;28;20124;-70
2022/08/04 03:17:11;;;;;;;6.47;3.05;;;18.80;99.90;;;;;;5017574;28;20054;-70
2022/08/04 03:20:06;;;;;;;13.93;3.45;;;18.80;99.90;;;;;;5017253;28;20056;-69
2022/08/04 03:22:50;;;;;;;12.60;3.60;;;18.80;99.90;;;;;;5017887;28;20053;-70
2022/08/04 03:25:34;;;;;;;;;;;18.70;99.90;;;;;;5018003;28;20050;-69
2022/08/04 03:28:11;;;;;;;;;;;18.80;99.90;;;;;;5017455;28;19967;-70
2022/08/04 03:30:55;;;;;;;9.43;3.80;;;18.70;99.90;;;;;;5017325;28;19979;-70
2022/08/04 03:33:30;;;;;;;16.48;3.65;;;18.70;99.90;;;;;;5017221;28;20336;-70
2022/08/04 03:35:58;;;;;;;7.35;2.90;;;18.70;99.90;;;;;;5017599;28;20324;-69
2022/08/04 03:38:42;;;;;;;9.38;3.30;;;18.70;99.90;;;;;;5016840;28;20046;-69
2022/08/04 03:41:24;;;;;;;5.63;2.78;;;18.70;99.90;;;;;;5016985;28;20077;-70
2022/08/04 03:44:24;;;;;;;9.75;3.95;;;18.70;99.90;;;;;;5017917;28;20423;-69
2022/08/04 03:46:49;;;;;;;9.50;3.42;;;18.70;99.90;;;;;;5016961;28;20144;-70
2022/08/04 03:49:37;;;;;;;8.45;3.92;;;18.60;99.90;;;;;;5016813;28;20097;-70
2022/08/04 03:55:10;;;;;;;6.80;3.42;;;18.70;99.90;;;;;;5016865;28;20108;-70
2022/08/04 03:57:49;;;;;;;12.48;4.22;;;18.70;99.90;;;;;;5016625;28;20100;-70
2022/08/04 04:00:23;;;;;;;9.48;3.33;;;18.70;99.90;;;;;;5017874;28;20072;-70
2022/08/04 04:03:20;;;;;;;9.38;3.60;;;18.70;99.90;;;;;;5016612;28;20355;-70
2022/08/04 04:06:07;;;;;;;9.45;3.90;;;18.70;99.90;;;;;;5016830;28;20049;-70
2022/08/04 04:09:03;;;;;;;5.72;2.78;;;18.60;99.90;;;;;;5016483;28;20071;-70
2022/08/04 04:11:39;;;;;;;11.25;4.45;;;18.70;99.90;;;;;;5016127;28;20206;-69
2022/08/04 04:14:22;;;;;;;9.65;4.50;;;18.70;99.90;;;;;;5016803;28;20057;-69
2022/08/04 04:17:51;;;;;;;11.82;4.22;;;18.70;99.90;;;;;;5016489;28;20049;-70
2022/08/04 04:20:50;;;;;;;10.60;4.10;;;18.70;99.90;;;;;;4957683;29;20051;-69
2022/08/04 04:23:50;;;;;;;12.32;4.57;;;18.70;99.90;;;;;;4940619;29;20047;-70
2022/08/04 04:26:53;;;;;;;7.95;3.47;;;18.80;99.90;;;;;;5009295;28;20042;-70
2022/08/04 04:29:28;;;;;;;13.75;4.20;;;18.80;99.90;;;;;;4996478;28;20042;-70
2022/08/04 04:32:17;;;;;;;7.60;3.70;;;18.90;99.90;;;;;;5015338;28;20169;-70
2022/08/04 04:35:01;;;;;;;10.23;3.78;;;18.90;99.90;;;;;;5016287;28;20489;-70
2022/08/04 04:37:45;;;;;;;9.48;3.85;;;18.90;99.90;;;;;;5015915;28;20123;-70
2022/08/04 04:40:21;;;;;;;14.10;4.35;;;19.00;99.90;;;;;;5014628;28;20045;-70
2022/08/04 04:43:20;;;;;;;8.02;4.00;;;19.00;99.90;;;;;;5015386;28;20072;-70
2022/08/04 04:46:26;;;;;;;9.07;3.13;;;19.10;99.90;;;;;;5002358;28;20046;-71
2022/08/04 04:49:13;;;;;;;10.50;3.28;;;19.20;99.90;;;;;;5003555;28;20057;-70
2022/08/04 04:51:51;;;;;;;7.95;4.07;;;19.30;99.90;;;;;;4999798;28;20104;-70
2022/08/04 04:54:50;;;;;;;9.98;4.00;;;19.40;99.90;;;;;;5016245;28;20065;-71
2022/08/04 04:57:18;;;;;;;7.95;3.47;;;19.50;99.90;;;;;;5014199;28;20370;-70
2022/08/04 05:00:03;;;;;;;9.05;3.70;;;19.60;99.90;;;;;;5015157;28;20045;-70
2022/08/04 05:02:41;;;;;;;10.02;3.88;;;19.60;99.90;;;;;;5015207;28;20052;-70
2022/08/04 05:05:25;;;;;;;10.23;4.10;;;19.70;99.90;;;;;;5015249;28;20414;-70
2022/08/04 05:07:57;;;;;;;9.80;3.90;;;19.80;99.90;;;;;;5015437;28;20050;-70
2022/08/04 05:11:00;;;;;;;10.15;3.58;;;20.00;99.90;;;;;;5015291;28;20121;-70
2022/08/04 05:14:09;;;;;;;11.23;4.68;;;20.10;99.90;;;;;;5016146;28;20046;-70
2022/08/04 05:16:43;;;;;;;13.50;4.40;;;20.20;99.90;;;;;;4954874;29;20047;-70
2022/08/04 05:19:42;;;;;;;8.95;4.35;;;20.30;99.90;;;;;;5005315;28;20088;-70
2022/08/04 05:22:31;;;;;;;12.20;4.30;;;20.40;99.90;;;;;;5014872;28;20054;-70
2022/08/04 05:25:21;;;;;;;7.97;4.30;;;20.60;99.90;;;;;;5014866;28;20033;-70
2022/08/04 05:28:14;;;;;;;13.77;4.82;;;20.80;99.90;;;;;;5007638;28;20184;-70
2022/08/04 05:30:48;;;;;;;11.30;5.18;;;21.00;99.90;;;;;;5013919;28;20064;-70
2022/08/04 05:33:24;;;;;;;9.10;4.50;;;21.30;99.90;;;;;;5014930;28;20050;-70
2022/08/04 05:35:55;;;;;;;9.23;5.22;;;21.50;99.90;;;;;;5015411;28;20049;-70
2022/08/04 05:38:26;;;;;;;14.10;5.05;;;21.90;99.90;;;;;;5014725;28;20471;-70
2022/08/04 05:40:52;;;;;;;9.93;4.15;;;22.40;99.90;;;;;;5014423;28;20041;-70
2022/08/04 05:43:20;;;;;;;10.63;4.50;;;22.80;99.90;;;;;;5014697;28;20046;-68
2022/08/04 05:45:47;;;;;;;10.70;4.15;;;23.30;99.90;;;;;;5015545;28;20045;-70
2022/08/04 05:48:13;;;;;;;15.05;4.85;;;23.60;99.90;;;;;;5014567;28;20057;-70
2022/08/04 05:50:39;;;;;;;12.75;4.20;;;24.10;99.90;;;;;;5014671;28;20443;-71
2022/08/04 05:53:06;;;;;;;13.50;4.28;;;25.10;99.90;;;;;;5014507;28;20044;-71
2022/08/04 05:55:33;;;;;;;10.52;4.25;;;26.10;99.90;;;;;;5015353;28;20057;-70
2022/08/04 05:58:00;;;;;;;9.20;3.97;;;26.90;99.90;;;;;;5014581;28;20068;-70
2022/08/04 06:00:27;;;;;;;7.43;3.63;;;27.40;99.90;;;;;;5014187;28;20068;-70
2022/08/04 06:02:54;;;;;;;8.35;3.67;;;27.80;99.90;;;;;;5014834;28;20081;-71
2022/08/04 06:05:21;;;;;;;11.13;3.42;;;28.50;99.90;;;;;;5013999;28;20064;-70
2022/08/04 06:07:47;;;;;;;14.35;3.70;;;29.20;99.90;;;;;;5014685;28;20104;-71
2022/08/04 06:10:13;;;;;;;8.77;3.33;;;29.80;99.90;;;;;;5014408;28;20050;-71
2022/08/04 06:13:00;;;;;;;10.70;2.97;;;30.50;99.90;;;;;;5014730;28;20128;-71
2022/08/04 06:15:28;;;;;;;11.88;3.58;;;30.90;99.00;;;;;;5014800;28;20054;-68
2022/08/04 06:18:00;;;;;;;9.88;2.88;;;30.80;99.50;;;;;;5014598;28;20056;-68
2022/08/04 06:20:28;;;;;;;9.75;3.30;;;30.90;99.20;;;;;;5014391;28;20076;-69
2022/08/04 06:23:01;;;;;;;10.85;3.50;;;31.00;99.20;;;;;;5014530;28;20049;-69
2022/08/04 06:25:46;;;;;;;5.47;3.03;;;31.50;98.10;;;;;;5014425;28;20046;-69
2022/08/04 06:28:14;;;;;;;9.90;3.30;;;31.90;97.40;;;;;;5014636;28;20121;-69
2022/08/04 06:30:40;;;;;;;12.70;3.30;;;32.30;97.90;;;;;;5013867;28;20042;-68
2022/08/04 06:33:41;;;;;;;9.90;2.42;;;32.80;97.10;;;;;;5006723;28;20045;-69
2022/08/04 06:36:06;;;;;;;8.02;3.15;;;33.30;96.30;;;;;;5016923;28;20070;-69
2022/08/04 06:38:35;;;;;;;8.57;2.90;;;33.60;95.30;;;;;;5017689;28;20458;-70
2022/08/04 06:41:08;;;;;;;10.00;3.25;;;33.50;95.80;;;;;;5017743;28;20045;-69
2022/08/04 06:43:35;;;;;;;7.35;2.20;;;33.50;95.50;;;;;;5017360;28;20530;-69
2022/08/04 06:46:01;;;;;;;10.18;3.03;;;33.50;95.60;;;;;;5017903;28;20061;-69
2022/08/04 06:48:28;;;;;;;6.10;2.75;;;33.40;95.20;;;;;;5018227;28;20042;-70
2022/08/04 06:50:54;;;;;;;6.35;2.55;;;32.90;95.20;;;;;;5017763;28;20179;-69
2022/08/04 06:53:20;;;;;;;9.98;2.90;;;32.30;95.20;;;;;;5017394;28;20045;-69
2022/08/04 06:55:47;;;;;;;6.88;2.58;;;32.10;96.00;;;;;;5017944;28;20057;-69
2022/08/04 06:58:14;;;;;;;13.68;3.25;;;31.80;95.90;;;;;;5017729;28;20057;-68
2022/08/04 07:00:42;;;;;;;5.72;2.90;;;31.50;95.90;;;;;;5017874;28;20045;-68
2022/08/04 07:03:08;;;;;;;6.13;2.25;;;31.20;96.20;;;;;;5017812;28;20038;-68
2022/08/04 07:05:34;;;;;;;6.30;2.83;;;30.80;96.60;;;;;;5017128;28;20058;-69
2022/08/04 07:08:00;;;;;;;8.18;2.70;;;30.80;96.50;;;;;;5017666;28;20053;-69
2022/08/04 07:10:27;;;;;;;11.05;2.60;;;31.30;96.90;;;;;;5016871;28;20049;-69
2022/08/04 07:12:54;;;;;;;8.57;2.33;;;31.40;96.20;;;;;;5017823;28;20048;-69
2022/08/04 07:15:20;;;;;;;9.70;2.38;;;31.60;96.30;;;;;;5017316;28;20046;-69
2022/08/04 07:17:47;;;;;;;9.27;2.85;;;31.70;96.10;;;;;;5017219;28;20125;-69
2022/08/04 07:20:13;;;;;;;8.63;2.40;;;31.40;96.30;;;;;;5017293;28;20107;-69
2022/08/04 07:22:41;;;;;;;9.45;2.70;;;31.40;96.30;;;;;;5017442;28;20050;-70
2022/08/04 07:25:11;;;;;;;10.90;2.35;;;31.50;96.00;;;;;;5016917;28;20100;-70
2022/08/04 07:27:37;;;;;;;7.10;2.05;;;31.90;96.30;;;;;;5017609;28;20053;-70
2022/08/04 07:30:06;;;;;;;6.25;1.92;;;32.50;96.10;;;;;;5017260;28;20046;-70
2022/08/04 07:32:32;;;;;;;7.18;1.92;;;32.90;95.80;;;;;;5017273;28;20413;-70
2022/08/04 07:34:58;;;;;;;6.88;1.73;;;33.40;95.60;;;;;;5016156;28;20125;-70
2022/08/04 07:37:24;;;;;;;8.57;1.70;;;33.80;95.50;;;;;;5017088;28;20045;-70
2022/08/04 07:39:50;;;;;;;5.47;1.98;;;33.40;94.50;;;;;;5016209;28;20053;-70
2022/08/04 07:42:20;;;;;;;5.25;1.90;;;33.20;94.90;;;;;;5016686;28;20405;-70
2022/08/04 07:44:45;;;;;;;7.35;2.15;;;33.40;94.70;;;;;;5016317;28;20053;-70
2022/08/04 07:47:12;;;;;;;8.18;2.15;;;33.40;94.70;;;;;;5016135;28;20383;-71
2022/08/04 07:49:39;;;;;;;3.80;1.45;;;33.80;94.80;;;;;;5016813;28;20049;-69
2022/08/04 07:52:05;;;;;;;7.72;1.85;;;34.30;94.70;;;;;;5016415;28;20398;-68
2022/08/04 07:54:32;;;;;;;7.88;2.10;;;34.80;94.50;;;;;;5016860;28;20136;-68
2022/08/04 07:56:58;;;;;;;9.15;2.20;;;34.40;93.80;;;;;;5016396;28;20088;-68
2022/08/04 07:59:24;;;;;;;6.22;2.00;;;34.40;93.80;;;;;;5017258;28;20085;-68
2022/08/04 08:01:50;;;;;;;5.53;1.80;;;34.50;93.30;;;;;;5016722;28;20084;-68
2022/08/04 08:04:16;;;;;;;9.52;2.47;;;34.60;93.60;;;;;;5016723;28;20038;-68
2022/08/04 08:06:42;;;;;;;6.72;1.65;;;34.50;93.40;;;;;;5016784;28;20451;-68
2022/08/04 08:09:20;;;;;;;6.40;1.70;;;34.50;93.70;;;;;;5016701;28;20157;-68
2022/08/04 08:11:47;;;;;;;7.82;1.52;;;34.50;92.50;;;;;;5016375;28;20042;-68
2022/08/04 08:14:14;;;;;;;8.10;1.98;;;34.50;93.30;;;;;;5016279;28;20037;-68
2022/08/04 08:16:39;;;;;;;9.18;1.50;;;34.60;93.50;;;;;;5016170;28;20085;-68
2022/08/04 08:19:06;;;;;;;8.35;2.10;;;34.60;93.50;;;;;;5016151;28;20084;-67
2022/08/04 08:21:32;;;;;;;6.93;2.05;;;34.40;93.40;;;;;;5016013;28;20054;-68
2022/08/04 08:23:58;;;;;;;12.65;2.00;;;33.90;93.20;;;;;;5016039;28;20069;-68
2022/08/04 08:26:24;;;;;;;3.85;1.65;;;33.40;93.70;;;;;;5016088;28;20042;-67
2022/08/04 08:28:50;;;;;;;9.00;2.22;;;33.10;94.00;;;;;;5016266;28;20069;-68
2022/08/04 08:31:15;;;;;;;9.15;2.30;;;33.00;94.20;;;;;;5016357;28;20092;-69
2022/08/04 08:33:42;;;;;;;11.50;2.13;;;32.70;94.00;;;;;;5015918;28;20450;-68
2022/08/04 08:36:35;;;;;;;11.00;2.13;;;32.70;94.40;;;;;;5002208;28;20057;-67
2022/08/04 08:39:09;;;;;;;6.57;1.80;;;32.50;95.00;;;;;;5001422;28;20405;-67
2022/08/04 08:42:06;;;;;;;3.60;1.42;;;32.50;95.00;;;;;;5015622;28;20049;-68
2022/08/04 08:44:47;;;;;;;5.55;1.60;;;32.60;95.10;;;;;;5015201;28;20347;-68
2022/08/04 08:47:42;;;;;;;12.02;1.67;;;32.60;94.50;;;;;;5015401;28;20077;-69
2022/08/04 08:50:26;;;;;;;7.30;1.70;;;32.80;95.10;;;;;;5016125;28;20046;-69
2022/08/04 08:53:09;;;;;;;5.65;1.80;;;32.80;94.60;;;;;;5015479;28;20058;-68
2022/08/04 08:56:01;;;;;;;8.00;1.70;;;33.20;94.50;;;;;;5015089;28;20048;-68
2022/08/04 08:58:58;;;;;;;7.38;2.10;;;33.70;94.50;;;;;;5014134;28;20045;-68
2022/08/04 09:01:50;;;;;;;8.85;1.70;;;33.70;93.50;;;;;;5164217;22;20053;-68
2022/08/04 09:04:47;;;;;;;4.95;1.67;;;33.60;94.00;;;;;;5014781;28;20389;-69
2022/08/04 09:07:15;;;;;;;3.95;1.60;;;33.90;93.30;;;;;;5015012;28;20465;-68
2022/08/04 09:09:52;;;;;;;6.72;2.00;;;34.20;93.90;;;;;;5015213;28;20042;-68
2022/08/04 09:12:29;;;;;;;7.15;2.22;;;34.10;93.40;;;;;;5015507;28;20138;-68
2022/08/04 09:15:13;;;;;;;7.13;1.45;;;33.60;93.70;;;;;;5015909;28;20054;-68
2022/08/04 09:17:54;;;;;;;8.20;2.25;;;33.50;93.60;;;;;;5015579;28;20056;-69
2022/08/04 09:20:46;;;;;;;5.85;1.55;;;32.90;94.40;;;;;;5014719;28;20056;-68
2022/08/04 09:23:34;;;;;;;6.18;2.20;;;32.70;94.40;;;;;;5015482;28;20060;-68
2022/08/04 09:26:15;;;;;;;6.90;2.03;;;32.50;94.80;;;;;;5015519;28;20045;-68
2022/08/04 09:29:10;;;;;;;7.88;2.10;;;32.40;94.90;;;;;;5015100;28;20052;-69
2022/08/04 09:31:55;;;;;;;8.57;2.10;;;32.30;95.40;;;;;;4974260;28;20463;-68
2022/08/04 09:34:31;;;;;;;7.70;2.42;;;32.10;94.80;;;;;;4994952;28;20057;-68
2022/08/04 09:37:19;;;;;;;12.80;2.85;;;31.80;95.30;;;;;;4995229;28;20050;-69
2022/08/04 09:40:06;;;;;;;5.80;2.13;;;31.50;94.60;;;;;;5004029;28;20068;-69
2022/08/04 09:43:04;;;;;;;7.45;2.13;;;31.20;95.40;;;;;;5015015;28;20049;-69
2022/08/04 09:45:44;;;;;;;5.15;2.25;;;31.20;95.20;;;;;;5015732;28;20328;-68
2022/08/04 09:48:16;;;;;;;7.05;2.00;;;31.10;95.10;;;;;;5015418;28;20115;-69
2022/08/04 09:50:45;;;;;;;10.35;2.60;;;31.10;95.40;;;;;;5014903;28;20046;-69
2022/08/04 09:53:20;;;;;;;10.57;2.40;;;31.30;95.10;;;;;;5014924;28;20049;-68
2022/08/04 09:55:46;;;;;;;6.03;2.13;;;31.00;95.40;;;;;;5015058;28;20042;-70
2022/08/04 09:58:27;;;;;;;11.05;2.45;;;31.00;95.60;;;;;;5014992;28;20128;-69
2022/08/04 10:01:01;;;;;;;7.65;2.42;;;30.90;95.70;;;;;;5014728;28;20045;-70
2022/08/04 10:03:33;;;;;;;6.60;2.20;;;31.00;96.50;;;;;;5015297;28;20061;-69
2022/08/04 10:06:09;;;;;;;6.35;2.80;;;30.90;96.20;;;;;;5014779;28;20042;-68
2022/08/04 10:08:53;;;;;;;8.43;2.25;;;30.90;96.10;;;;;;5015446;28;20046;-69
2022/08/04 10:11:36;;;;;;;10.60;2.70;;;30.70;96.10;;;;;;5016926;28;20072;-69
2022/08/04 10:14:19;;;;;;;6.00;1.77;;;30.70;96.20;;;;;;5019988;28;20065;-68
2022/08/04 10:17:19;;;;;;;11.50;3.20;;;30.90;96.10;;;;;;5018705;28;20046;-69
2022/08/04 10:19:55;;;;;;;9.98;3.30;;;31.10;95.90;;;;;;4999068;28;20422;-70
2022/08/04 10:22:27;;;;;;;11.90;2.55;;;31.10;95.50;;;;;;4998528;28;20181;-70
2022/08/04 10:24:59;;;;;;;;;;;31.20;95.40;;;;;;4999819;28;20121;-70
2022/08/04 10:27:50;;;;;;;10.23;1.90;;;31.30;95.80;;;;;;4999494;28;19957;-71
2022/08/04 10:30:18;;;;;;;5.63;1.80;;;31.60;95.10;;;;;;5018740;28;20053;-71
2022/08/04 10:33:01;;;;;;;5.32;1.80;;;31.70;95.30;;;;;;5018429;28;20409;-71
2022/08/04 10:35:34;;;;;;;7.55;2.20;;;31.70;94.40;;;;;;5018943;28;20096;-72
2022/08/04 10:38:24;;;;;;;7.25;1.52;;;31.70;95.20;;;;;;5017999;28;20088;-71
2022/08/04 10:41:00;;;;;;;4.70;1.60;;;31.90;95.60;;;;;;5018257;28;20132;-71
2022/08/04 10:43:41;;;;;;;7.85;1.50;;;31.80;94.10;;;;;;5000980;28;20367;-72
2022/08/04 10:46:20;;;;;;;4.60;1.67;;;31.60;94.60;;;;;;5018374;28;20042;-71
2022/08/04 10:49:07;;;;;;;3.05;1.33;;;31.60;94.70;;;;;;5017503;28;20519;-69
2022/08/04 10:51:58;;;;;;;4.80;1.60;;;31.60;94.40;;;;;;5018328;28;20081;-70
2022/08/04 10:54:52;;;;;;;6.72;2.10;;;31.30;94.20;;;;;;5018233;28;20057;-69
2022/08/04 10:57:51;;;;;;;6.93;1.58;;;31.10;94.70;;;;;;5017835;28;20038;-69
2022/08/04 11:00:25;;;;;;;3.95;1.38;;;31.10;94.40;;;;;;5012943;28;20053;-69
2022/08/04 11:03:04;;;;;;;6.50;1.98;;;31.00;95.20;;;;;;5020089;28;20133;-69
2022/08/04 11:05:51;;;;;;;5.00;1.55;;;31.10;94.30;;;;;;5008406;28;20061;-69
2022/08/04 11:08:16;;;;;;;6.35;1.65;;;31.20;94.30;;;;;;5027093;28;20399;-69
2022/08/04 11:10:48;;;;;;;5.25;1.02;;;31.30;94.80;;;;;;5031518;28;20077;-70
2022/08/04 11:13:16;;;;;;;4.53;1.00;;;31.50;94.60;;;;;;5037673;28;20049;-69
2022/08/04 11:15:54;;;;;;;5.25;1.00;;;31.70;94.40;;;;;;5036318;28;20056;-69
2022/08/04 11:18:30;;;;;;;4.75;0.95;;;31.90;93.30;;;;;;5020655;28;20053;-69
2022/08/04 11:21:03;;;;;;;5.45;1.35;;;31.80;93.20;;;;;;5027765;28;20351;-68
2022/08/04 11:23:34;;;;;;;4.50;1.10;;;31.60;92.60;;;;;;5034475;28;20128;-68
2022/08/04 11:26:14;;;;;;;5.70;1.30;;;31.50;93.10;;;;;;5023262;28;20509;-68
2022/08/04 11:28:39;;;;;;;8.75;1.30;;;31.40;93.00;;;;;;5024092;28;20042;-70
2022/08/04 11:31:25;;;;;;;10.38;1.20;;;31.30;93.50;;;;;;5026036;28;20429;-68
2022/08/04 11:34:21;;;;;;;5.03;1.23;;;31.30;94.00;;;;;;5026920;28;20377;-68
2022/08/04 11:37:01;;;;;;;7.47;1.67;;;31.30;94.00;;;;;;5018233;28;20133;-69
2022/08/04 11:39:43;;;;;;;10.30;1.88;;;31.20;94.30;;;;;;5017230;28;20063;-69
2022/08/04 11:42:23;;;;;;;4.80;1.30;;;31.20;94.70;;;;;;5023200;28;20382;-68
2022/08/04 11:45:06;;;;;;;5.40;1.88;;;31.00;94.80;;;;;;4997370;28;20419;-69
2022/08/04 11:47:37;;;;;;;6.40;1.40;;;30.90;95.10;;;;;;5011796;28;20045;-68
2022/08/04 11:50:03;;;;;;;3.75;1.02;;;31.10;95.50;;;;;;5019644;28;20053;-69
2022/08/04 11:52:32;;;;;;;7.65;1.17;;;31.10;95.40;;;;;;5022667;28;20149;-69
2022/08/04 11:55:04;;;;;;;7.10;1.50;;;31.10;95.70;;;;;;5025986;28;20033;-69
2022/08/04 11:57:30;;;;;;;5.53;1.40;;;31.10;95.50;;;;;;5017458;28;20180;-69
2022/08/04 11:59:57;;;;;;;4.50;0.98;;;31.00;95.60;;;;;;5017035;28;20120;-68
2022/08/04 12:03:01;;;;;;;4.50;1.40;;;31.10;95.50;;;;;;5016325;28;20132;-69
2022/08/04 12:05:32;;;;;;;4.80;1.10;;;31.10;94.90;;;;;;4980276;28;20202;-69
2022/08/04 12:08:12;;;;;;;5.25;1.23;;;31.00;95.10;;;;;;5016945;28;20060;-69
2022/08/04 12:10:46;;;;;;;2.00;1.00;;;30.90;95.30;;;;;;5014871;28;20050;-69
2022/08/04 12:13:35;;;;;;;3.33;1.33;;;30.90;95.30;;;;;;5023384;28;20489;-69
2022/08/04 12:16:21;;;;;;;5.30;1.30;;;30.70;95.70;;;;;;5015620;28;20513;-68
2022/08/04 12:19:00;;;;;;;3.67;0.90;;;30.70;95.30;;;;;;5014324;28;20054;-68
2022/08/04 12:21:43;;;;;;;4.05;1.10;;;30.60;95.60;;;;;;5023428;28;20372;-69
2022/08/04 12:24:18;;;;;;;3.95;1.00;;;30.50;95.50;;;;;;5012279;28;20050;-69
2022/08/04 12:26:57;;;;;;;3.65;1.17;;;30.30;95.70;;;;;;5015985;28;20053;-69
2022/08/04 12:29:26;;;;;;;1.95;0.82;;;30.30;95.40;;;;;;5015513;28;20493;-69
2022/08/04 12:31:59;;;;;;;2.28;0.82;;;30.30;95.30;;;;;;5015131;28;20187;-68
2022/08/04 12:34:32;;;;;;;1.48;0.70;;;30.20;95.40;;;;;;5015425;28;20111;-70
2022/08/04 12:37:05;;;;;;;3.50;1.35;;;30.10;95.30;;;;;;5015519;28;20065;-69
2022/08/04 12:39:31;;;;;;;4.18;0.90;;;29.90;95.30;;;;;;5015555;28;20042;-68
2022/08/04 12:42:00;;;;;;;3.92;1.08;;;29.80;95.30;;;;;;5015176;28;20099;-68
2022/08/04 12:44:33;;;;;;;3.30;1.02;;;29.70;95.50;;;;;;5022870;28;20128;-69
2022/08/04 12:47:02;;;;;;;1.85;0.80;;;29.50;95.10;;;;;;5032083;28;20034;-68
2022/08/04 12:49:31;;;;;;;5.25;1.10;;;29.20;95.50;;;;;;5031888;28;20482;-68
2022/08/04 12:51:58;;;;;;;3.97;0.90;;;29.10;95.40;;;;;;5026684;28;20042;-70
2022/08/04 12:54:25;;;;;;;5.50;1.23;;;28.90;95.50;;;;;;5015330;28;20053;-69
2022/08/04 12:56:56;;;;;;;3.90;1.05;;;28.90;96.00;;;;;;5021589;28;20060;-69
2022/08/04 12:59:22;;;;;;;6.15;1.27;;;28.90;96.00;;;;;;5029540;28;20037;-68
2022/08/04 13:01:50;;;;;;;2.17;0.90;;;28.90;96.10;;;;;;5017139;28;20061;-68
2022/08/04 13:04:26;;;;;;;5.63;1.15;;;29.00;96.20;;;;;;5015383;28;20062;-70
2022/08/04 13:06:57;;;;;;;5.18;1.33;;;29.10;96.00;;;;;;5015163;28;20142;-69
2022/08/04 13:09:27;;;;;;;2.78;1.15;;;29.20;96.00;;;;;;5015092;28;20111;-69
2022/08/04 13:11:57;;;;;;;2.08;0.93;;;29.30;95.90;;;;;;5014994;28;20046;-69
2022/08/04 13:14:27;;;;;;;3.58;0.80;;;29.40;95.50;;;;;;5015012;28;20046;-69
2022/08/04 13:16:58;;;;;;;2.88;0.80;;;29.40;95.80;;;;;;5028359;28;20078;-68
2022/08/04 13:19:24;;;;;;;2.33;0.90;;;29.60;95.30;;;;;;5034534;28;20049;-69
2022/08/04 13:21:52;;;;;;;1.23;0.60;;;29.80;95.70;;;;;;5027891;28;20149;-69
2022/08/04 13:24:21;;;;;;;2.92;0.82;;;29.90;95.30;;;;;;5014853;28;20054;-69
2022/08/04 13:26:52;;;;;;;2.45;1.10;;;30.00;94.80;;;;;;5014976;28;20077;-69
2022/08/04 13:29:18;;;;;;;1.50;0.70;;;30.10;94.70;;;;;;5014510;28;20056;-69
2022/08/04 13:31:45;;;;;;;2.40;0.88;;;30.10;94.50;;;;;;5013828;28;20485;-69
2022/08/04 13:34:14;;;;;;;4.70;0.98;;;30.30;94.40;;;;;;5014712;28;20034;-69